createdAt,value
2022-09-06T00:00:28.833Z,27.60
2022-09-06T00:02:56.528Z,27.61
2022-09-06T00:05:24.524Z,27.64
2022-09-06T00:07:52.361Z,27.58
2022-09-06T00:10:21.963Z,27.52
2022-09-06T00:12:49.675Z,27.53
2022-09-06T00:15:17.460Z,27.49
2022-09-06T00:17:47.520Z,27.48
2022-09-06T00:20:15.444Z,27.50
2022-09-06T00:22:42.927Z,27.50
2022-09-06T00:25:11.155Z,27.49
2022-09-06T00:27:38.839Z,27.49
2022-09-06T00:30:07.443Z,27.47
2022-09-06T00:32:35.057Z,27.46
2022-09-06T00:35:02.669Z,27.49
2022-09-06T00:37:30.208Z,27.45
2022-09-06T00:39:58.003Z,27.43
2022-09-06T00:42:25.957Z,27.38
2022-09-06T00:44:55.057Z,27.30
2022-09-06T00:47:23.051Z,27.34
2022-09-06T00:49:53.864Z,27.30
2022-09-06T00:52:22.637Z,27.16
2022-09-06T00:54:51.549Z,27.12
2022-09-06T00:57:19.869Z,27.13
2022-09-06T00:59:48.600Z,27.16
2022-09-06T01:02:16.722Z,27.14
2022-09-06T01:04:48.624Z,27.17
2022-09-06T01:07:26.588Z,27.18
2022-09-06T01:10:26.380Z,27.21
2022-09-06T01:13:20.133Z,27.18
2022-09-06T01:15:59.732Z,27.19
2022-09-06T01:19:00.025Z,27.24
2022-09-06T01:21:55.186Z,27.19
2022-09-06T01:24:49.907Z,27.02
2022-09-06T01:27:48.422Z,27.12
2022-09-06T01:30:19.935Z,27.11
2022-09-06T01:33:02.309Z,27.11
2022-09-06T01:35:41.279Z,26.96
2022-09-06T01:38:09.851Z,26.96
2022-09-06T01:40:37.457Z,27.01
2022-09-06T01:43:12.119Z,26.97
2022-09-06T01:46:10.512Z,27.05
2022-09-06T01:49:16.587Z,26.91
2022-09-06T01:52:23.798Z,26.91
2022-09-06T01:55:09.047Z,26.94
2022-09-06T01:57:56.878Z,26.92
2022-09-06T02:00:25.983Z,26.89
2022-09-06T02:02:58.019Z,26.91
2022-09-06T02:05:35.260Z,26.87
2022-09-06T02:08:10.425Z,26.79
2022-09-06T02:11:02.126Z,26.58
2022-09-06T02:13:36.541Z,26.56
2022-09-06T02:16:06.779Z,26.53
2022-09-06T02:18:44.983Z,26.59
2022-09-06T02:21:17.356Z,26.58
2022-09-06T02:23:47.284Z,26.57
2022-09-06T02:26:20.717Z,26.48
2022-09-06T02:28:49.069Z,26.50
2022-09-06T02:31:19.844Z,26.46
2022-09-06T02:33:49.747Z,26.41
2022-09-06T02:36:24.941Z,26.45
2022-09-06T02:39:01.467Z,26.33
2022-09-06T02:41:31.557Z,26.27
2022-09-06T02:43:59.667Z,26.22
2022-09-06T02:46:27.572Z,26.23
2022-09-06T02:48:55.559Z,26.13
2022-09-06T02:51:23.504Z,26.14
2022-09-06T02:53:51.378Z,26.20
2022-09-06T02:56:19.041Z,26.23
2022-09-06T02:58:46.874Z,26.19
2022-09-06T03:01:14.702Z,26.15
2022-09-06T03:03:43.105Z,26.15
2022-09-06T03:06:11.052Z,26.11
2022-09-06T03:08:42.124Z,26.05
2022-09-06T03:11:10.358Z,26.04
2022-09-06T03:13:38.121Z,26.09
2022-09-06T03:16:06.086Z,26.08
2022-09-06T03:18:34.198Z,26.07
2022-09-06T03:21:02.649Z,26.06
2022-09-06T03:23:30.761Z,26.02
2022-09-06T03:25:59.201Z,26.06
2022-09-06T03:28:28.733Z,25.98
2022-09-06T03:30:56.710Z,25.98
2022-09-06T03:33:24.918Z,25.96
2022-09-06T03:35:55.875Z,25.96
2022-09-06T03:38:25.640Z,25.95
2022-09-06T03:40:54.319Z,25.97
2022-09-06T03:43:23.801Z,26.00
2022-09-06T03:45:54.778Z,25.99
2022-09-06T03:48:24.794Z,25.98
2022-09-06T03:50:55.920Z,26.00
2022-09-06T03:53:27.324Z,25.91
2022-09-06T03:55:59.711Z,25.89
2022-09-06T03:58:33.204Z,25.93
2022-09-06T04:01:11.994Z,25.81
2022-09-06T04:03:40.576Z,25.83
2022-09-06T04:06:09.504Z,25.77
2022-09-06T04:08:37.785Z,25.83
2022-09-06T04:11:06.868Z,25.83
2022-09-06T04:13:35.770Z,25.79
2022-09-06T04:16:04.801Z,25.81
2022-09-06T04:18:37.137Z,25.82
2022-09-06T04:21:06.058Z,25.77
2022-09-06T04:23:37.668Z,25.76
2022-09-06T04:26:07.145Z,25.73
2022-09-06T04:28:34.831Z,25.76
2022-09-06T04:31:05.172Z,25.89
2022-09-06T04:33:34.907Z,26.00
2022-09-06T04:36:04.907Z,26.08
2022-09-06T04:38:37.488Z,26.12
2022-09-06T04:41:06.514Z,26.12
2022-09-06T04:43:34.285Z,26.11
2022-09-06T04:46:25.422Z,26.21
2022-09-06T04:48:54.717Z,26.06
2022-09-06T04:51:23.692Z,26.08
2022-09-06T04:53:52.690Z,25.98
2022-09-06T04:56:22.807Z,25.93
2022-09-06T04:58:51.531Z,26.05
2022-09-06T05:01:19.385Z,26.02
2022-09-06T05:03:56.777Z,26.03
2022-09-06T05:06:25.922Z,25.94
2022-09-06T05:08:54.600Z,25.84
2022-09-06T05:11:23.536Z,25.87
2022-09-06T05:13:51.048Z,25.84
2022-09-06T05:16:18.666Z,25.88
2022-09-06T05:18:46.414Z,25.86
2022-09-06T05:21:14.549Z,25.80
2022-09-06T05:23:43.134Z,25.81
2022-09-06T05:26:10.877Z,25.86
2022-09-06T05:28:38.261Z,25.97
2022-09-06T05:31:28.759Z,25.99
2022-09-06T05:33:58.076Z,26.10
2022-09-06T05:36:27.483Z,26.13
2022-09-06T05:38:56.801Z,26.13
2022-09-06T05:41:25.445Z,26.20
2022-09-06T05:43:54.264Z,26.20
2022-09-06T05:46:22.319Z,26.22
2022-09-06T05:48:54.712Z,26.20
2022-09-06T05:51:22.301Z,26.21
2022-09-06T05:53:50.431Z,26.28
2022-09-06T05:56:19.416Z,26.33
2022-09-06T05:58:47.108Z,26.32
2022-09-06T06:01:16.515Z,26.28
2022-09-06T06:03:55.008Z,26.25
2022-09-06T06:06:24.219Z,26.26
2022-09-06T06:08:51.884Z,26.23
2022-09-06T06:11:20.384Z,26.24
2022-09-06T06:13:49.264Z,26.29
2022-09-06T06:16:18.924Z,26.29
2022-09-06T06:18:51.763Z,26.30
2022-09-06T06:21:21.700Z,26.23
2022-09-06T06:24:07.658Z,26.25
2022-09-06T06:26:36.885Z,26.23
2022-09-06T06:29:08.393Z,26.19
2022-09-06T06:31:38.167Z,26.22
2022-09-06T06:34:06.787Z,26.28
2022-09-06T06:36:36.464Z,26.40
2022-09-06T06:39:07.007Z,26.58
2022-09-06T06:41:34.925Z,26.64
2022-09-06T06:44:04.062Z,26.64
2022-09-06T06:46:34.447Z,26.68
2022-09-06T06:49:02.378Z,26.71
2022-09-06T06:51:32.405Z,26.87
2022-09-06T06:54:00.365Z,26.82
2022-09-06T06:56:29.975Z,26.91
2022-09-06T06:59:00.843Z,26.98
2022-09-06T07:01:31.637Z,27.04
2022-09-06T07:04:00.337Z,26.89
2022-09-06T07:09:21.272Z,26.78
2022-09-06T07:11:49.436Z,26.74
2022-09-06T07:14:17.985Z,26.82
2022-09-06T07:16:46.214Z,26.92
2022-09-06T07:22:05.796Z,27.02
2022-09-06T07:24:33.827Z,27.07
2022-09-06T07:29:50.086Z,27.15
2022-09-06T07:32:18.055Z,27.18
2022-09-06T07:34:48.937Z,27.21
2022-09-06T07:37:16.819Z,27.33
2022-09-06T07:39:44.578Z,27.38
2022-09-06T07:42:12.349Z,27.37
2022-09-06T07:44:47.836Z,27.49
2022-09-06T07:53:11.982Z,27.95
2022-09-06T07:55:41.786Z,27.99
2022-09-06T07:58:09.469Z,28.07
2022-09-06T08:00:38.813Z,28.19
2022-09-06T08:03:06.184Z,28.26
2022-09-06T08:11:09.165Z,28.50
2022-09-06T08:13:37.639Z,28.51
2022-09-06T08:16:08.388Z,28.27
2022-09-06T08:18:37.341Z,28.17
2022-09-06T08:21:17.350Z,28.26
2022-09-06T08:23:54.261Z,28.49
2022-09-06T08:26:25.001Z,28.62
2022-09-06T08:29:00.664Z,28.78
2022-09-06T08:31:31.158Z,28.92
2022-09-06T08:34:00.548Z,29.09
2022-09-06T08:36:32.829Z,29.09
2022-09-06T08:39:03.130Z,29.11
2022-09-06T08:41:57.106Z,29.19
2022-09-06T08:47:21.065Z,29.18
2022-09-06T08:50:01.654Z,29.39
2022-09-06T08:52:45.385Z,29.45
2022-09-06T08:55:43.205Z,29.60
2022-09-06T08:58:33.965Z,29.75
2022-09-06T09:01:15.173Z,29.92
2022-09-06T09:03:45.465Z,30.01
2022-09-06T09:06:13.163Z,30.14
2022-09-06T09:09:04.031Z,30.15
2022-09-06T09:11:34.163Z,30.17
2022-09-06T09:14:21.049Z,30.15
2022-09-06T09:16:58.797Z,30.05
2022-09-06T09:19:26.127Z,30.04
2022-09-06T09:21:53.573Z,30.12
2022-09-06T09:24:26.171Z,30.16
2022-09-06T09:27:12.854Z,30.14
2022-09-06T09:32:46.127Z,30.23
2022-09-06T09:35:25.191Z,30.21
2022-09-06T09:38:11.993Z,30.10
2022-09-06T09:40:43.618Z,30.12
2022-09-06T09:43:17.116Z,30.09
2022-09-06T09:45:46.826Z,30.09
2022-09-06T09:48:29.843Z,30.10
2022-09-06T09:51:08.523Z,30.11
2022-09-06T09:53:54.099Z,30.19
2022-09-06T09:56:39.105Z,30.32
2022-09-06T09:59:21.074Z,30.33
2022-09-06T10:01:48.992Z,30.49
2022-09-06T10:07:21.436Z,30.55
2022-09-06T10:09:58.976Z,30.57
2022-09-06T10:12:32.667Z,30.55
2022-09-06T10:15:04.926Z,30.55
2022-09-06T10:17:35.947Z,30.51
2022-09-06T10:20:09.687Z,30.44
2022-09-06T10:22:49.358Z,30.53
2022-09-06T10:25:31.915Z,30.53
2022-09-06T10:28:13.657Z,30.64
2022-09-06T10:31:03.558Z,30.61
2022-09-06T10:33:53.377Z,30.72
2022-09-06T10:36:34.247Z,30.70
2022-09-06T10:39:31.973Z,30.78
2022-09-06T10:42:06.438Z,30.71
2022-09-06T10:44:36.749Z,30.74
2022-09-06T10:47:16.339Z,30.74
2022-09-06T10:49:46.936Z,30.81
2022-09-06T10:52:23.605Z,30.78
2022-09-06T10:54:53.007Z,30.66
2022-09-06T11:00:49.859Z,30.83
2022-09-06T11:06:15.698Z,31.11
2022-09-06T11:08:58.103Z,31.14
2022-09-06T11:11:50.997Z,31.24
2022-09-06T11:14:22.267Z,31.29
2022-09-06T11:16:58.176Z,31.33
2022-09-06T11:19:42.850Z,31.35
2022-09-06T11:22:45.543Z,31.42
2022-09-06T11:25:22.447Z,31.43
2022-09-06T11:28:00.678Z,31.43
2022-09-06T11:30:30.750Z,31.47
2022-09-06T11:33:25.947Z,31.50
2022-09-06T11:36:18.125Z,31.44
2022-09-06T11:38:56.511Z,31.42
2022-09-06T11:41:33.156Z,31.43
2022-09-06T11:44:01.558Z,31.48
2022-09-06T11:46:35.359Z,31.51
2022-09-06T11:49:34.708Z,31.56
2022-09-06T11:52:04.180Z,31.66
2022-09-06T11:54:50.128Z,31.66
2022-09-06T11:57:23.044Z,31.60
2022-09-06T12:00:04.929Z,31.64
2022-09-06T12:02:35.660Z,31.70
2022-09-06T12:05:04.957Z,31.66
2022-09-06T12:07:34.418Z,31.54
2022-09-06T12:10:23.274Z,31.54
2022-09-06T12:12:59.068Z,31.43
2022-09-06T12:15:30.006Z,31.45
2022-09-06T12:18:00.038Z,31.37
2022-09-06T12:20:49.733Z,31.33
2022-09-06T12:23:41.793Z,31.27
2022-09-06T12:26:11.320Z,31.28
2022-09-06T12:28:48.820Z,31.27
2022-09-06T12:31:51.064Z,31.29
2022-09-06T12:34:23.402Z,31.37
2022-09-06T12:36:59.522Z,31.30
2022-09-06T12:39:28.192Z,31.36
2022-09-06T12:42:06.999Z,31.37
2022-09-06T12:44:39.800Z,31.48
2022-09-06T12:47:29.471Z,31.64
2022-09-06T12:50:11.860Z,31.59
2022-09-06T12:52:50.539Z,31.66
2022-09-06T12:55:30.613Z,31.70
2022-09-06T12:58:08.251Z,31.74
2022-09-06T13:00:55.161Z,31.59
2022-09-06T13:03:37.290Z,31.43
2022-09-06T13:06:08.531Z,31.40
2022-09-06T13:08:52.497Z,31.37
2022-09-06T13:11:37.552Z,31.29
2022-09-06T13:14:30.725Z,31.31
2022-09-06T13:16:58.505Z,31.33
2022-09-06T13:19:36.113Z,31.31
2022-09-06T13:22:09.043Z,31.27
2022-09-06T13:24:37.289Z,31.27
2022-09-06T13:27:38.015Z,31.18
2022-09-06T13:30:10.972Z,31.15
2022-09-06T13:32:49.088Z,31.26
2022-09-06T13:35:25.190Z,31.32
2022-09-06T13:37:52.731Z,31.28
2022-09-06T13:41:06.961Z,31.28
2022-09-06T13:43:33.797Z,31.30
2022-09-06T13:46:09.538Z,31.40
2022-09-06T13:48:40.197Z,31.45
2022-09-06T13:51:08.860Z,31.52
2022-09-06T13:53:36.747Z,31.56
2022-09-06T13:56:09.144Z,31.68
2022-09-06T13:58:37.290Z,31.79
2022-09-06T14:01:10.412Z,31.89
2022-09-06T14:03:42.200Z,31.92
2022-09-06T14:06:11.722Z,31.92
2022-09-06T14:09:03.312Z,31.92
2022-09-06T14:11:28.083Z,31.97
2022-09-06T14:13:55.765Z,32.01
2022-09-06T14:16:23.765Z,32.02
2022-09-06T14:18:52.339Z,32.03
2022-09-06T14:21:22.162Z,31.98
2022-09-06T14:23:54.292Z,31.99
2022-09-06T14:26:23.429Z,32.06
2022-09-06T14:28:51.737Z,32.13
2022-09-06T14:31:22.253Z,32.14
2022-09-06T14:33:50.460Z,32.22
2022-09-06T14:36:26.267Z,32.24
2022-09-06T14:38:54.502Z,32.27
2022-09-06T14:41:22.577Z,32.32
2022-09-06T14:43:59.009Z,32.31
2022-09-06T14:46:28.910Z,32.30
2022-09-06T14:49:08.511Z,32.33
2022-09-06T14:51:38.401Z,32.23
2022-09-06T14:54:10.435Z,32.32
2022-09-06T14:56:40.194Z,32.34
2022-09-06T14:59:08.979Z,32.36
2022-09-06T15:01:38.499Z,32.41
2022-09-06T15:04:10.655Z,32.43
2022-09-06T15:06:41.893Z,32.44
2022-09-06T15:09:13.237Z,32.42
2022-09-06T15:11:49.619Z,32.41
2022-09-06T15:14:28.078Z,32.39
2022-09-06T15:16:59.160Z,32.45
2022-09-06T15:19:29.277Z,32.44
2022-09-06T15:21:57.718Z,32.46
2022-09-06T15:24:28.066Z,32.39
2022-09-06T15:26:55.944Z,32.33
2022-09-06T15:29:23.810Z,32.36
2022-09-06T15:31:53.997Z,32.23
2022-09-06T15:34:24.032Z,32.20
2022-09-06T15:36:53.250Z,32.21
2022-09-06T15:39:21.732Z,32.06
2022-09-06T15:41:50.751Z,32.04
2022-09-06T15:44:19.917Z,32.00
2022-09-06T15:46:54.902Z,32.08
2022-09-06T15:49:29.026Z,32.11
2022-09-06T15:51:59.092Z,32.18
2022-09-06T15:54:46.224Z,32.13
2022-09-06T15:57:16.666Z,32.13
2022-09-06T15:59:44.964Z,32.17
2022-09-06T16:02:13.241Z,32.18
2022-09-06T16:04:41.053Z,32.18
2022-09-06T16:07:09.942Z,32.20
2022-09-06T16:09:37.525Z,32.18
2022-09-06T16:12:05.289Z,32.20
2022-09-06T16:14:32.931Z,32.22
2022-09-06T16:17:00.797Z,32.18
2022-09-06T16:19:28.352Z,32.20
2022-09-06T16:21:56.728Z,32.17
2022-09-06T16:24:38.544Z,32.27
2022-09-06T16:27:13.536Z,32.30
2022-09-06T16:29:50.105Z,32.37
2022-09-06T16:32:21.557Z,32.38
2022-09-06T16:34:51.493Z,32.42
2022-09-06T16:37:19.031Z,32.46
2022-09-06T16:39:46.732Z,32.49
2022-09-06T16:42:15.192Z,32.55
2022-09-06T16:44:42.457Z,32.58
2022-09-06T16:47:13.573Z,32.59
2022-09-06T16:49:43.632Z,32.59
2022-09-06T16:52:10.993Z,32.62
2022-09-06T16:54:38.852Z,32.54
2022-09-06T16:57:07.730Z,32.47
2022-09-06T16:59:35.216Z,32.48
2022-09-06T17:02:02.847Z,32.46
2022-09-06T17:04:30.829Z,32.42
2022-09-06T17:06:58.352Z,32.37
2022-09-06T17:09:25.902Z,32.31
2022-09-06T17:11:53.388Z,32.24
2022-09-06T17:14:20.982Z,32.17
2022-09-06T17:17:07.583Z,32.07
2022-09-06T17:19:38.238Z,31.86
2022-09-06T17:22:06.484Z,31.75
2022-09-06T17:24:34.452Z,31.65
2022-09-06T17:27:01.943Z,31.60
2022-09-06T17:29:29.449Z,31.46
2022-09-06T17:31:57.736Z,31.38
2022-09-06T17:34:25.824Z,31.26
2022-09-06T17:36:53.296Z,31.17
2022-09-06T17:39:22.469Z,31.08
2022-09-06T17:41:54.025Z,31.04
2022-09-06T17:44:25.789Z,30.97
2022-09-06T17:47:12.081Z,30.96
2022-09-06T17:49:42.860Z,30.89
2022-09-06T17:52:11.535Z,30.86
2022-09-06T17:54:39.335Z,30.81
2022-09-06T17:57:06.711Z,30.77
2022-09-06T17:59:35.675Z,30.71
2022-09-06T18:02:04.700Z,30.70
2022-09-06T18:04:32.453Z,30.67
2022-09-06T18:07:00.266Z,30.64
2022-09-06T18:09:28.034Z,30.59
2022-09-06T18:11:55.542Z,30.55
2022-09-06T18:14:23.668Z,30.48
2022-09-06T18:16:52.687Z,30.48
2022-09-06T18:19:21.895Z,30.45
2022-09-06T18:21:52.311Z,30.38
2022-09-06T18:24:19.967Z,30.33
2022-09-06T18:26:47.593Z,30.32
2022-09-06T18:29:18.751Z,30.28
2022-09-06T18:31:46.455Z,30.24
2022-09-06T18:34:16.423Z,30.17
2022-09-06T18:36:44.502Z,30.15
2022-09-06T18:39:13.607Z,30.14
2022-09-06T18:42:02.193Z,30.09
2022-09-06T18:44:34.304Z,30.05
2022-09-06T18:47:04.958Z,30.03
2022-09-06T18:49:34.215Z,30.02
2022-09-06T18:52:04.633Z,30.04
2022-09-06T18:54:36.644Z,29.97
2022-09-06T18:57:05.116Z,29.92
2022-09-06T18:59:41.489Z,29.90
2022-09-06T19:02:10.531Z,29.86
2022-09-06T19:04:38.152Z,29.83
2022-09-06T19:07:06.323Z,29.81
2022-09-06T19:09:34.289Z,29.79
2022-09-06T19:12:04.081Z,29.76
2022-09-06T19:14:34.175Z,29.73
2022-09-06T19:17:02.507Z,29.73
2022-09-06T19:19:31.231Z,29.72
2022-09-06T19:21:59.459Z,29.72
2022-09-06T19:24:27.636Z,29.67
2022-09-06T19:26:56.019Z,29.66
2022-09-06T19:29:23.855Z,29.62
2022-09-06T19:31:52.748Z,29.54
2022-09-06T19:34:21.049Z,29.49
2022-09-06T19:36:50.576Z,29.49
2022-09-06T19:39:33.535Z,29.50
2022-09-06T19:42:04.660Z,29.46
2022-09-06T19:44:33.487Z,29.38
2022-09-06T19:47:01.831Z,29.36
2022-09-06T19:49:31.283Z,29.39
2022-09-06T19:51:59.456Z,29.39
2022-09-06T19:54:30.947Z,29.36
2022-09-06T19:57:07.592Z,29.35
2022-09-06T19:59:39.658Z,29.28
2022-09-06T20:02:14.508Z,29.29
2022-09-06T20:04:45.841Z,29.27
2022-09-06T20:07:13.459Z,29.21
2022-09-06T20:09:42.029Z,29.12
2022-09-06T20:12:10.147Z,29.13
2022-09-06T20:14:41.502Z,29.11
2022-09-06T20:17:32.238Z,29.07
2022-09-06T20:19:57.956Z,29.03
2022-09-06T20:22:26.417Z,28.94
2022-09-06T20:24:53.872Z,28.99
2022-09-06T20:27:24.576Z,28.99
2022-09-06T20:29:56.200Z,28.85
2022-09-06T20:32:25.676Z,28.88
2022-09-06T20:35:00.140Z,28.90
2022-09-06T20:37:40.771Z,28.83
2022-09-06T20:40:11.589Z,28.87
2022-09-06T20:42:42.628Z,28.73
2022-09-06T20:45:12.204Z,28.74
2022-09-06T20:47:46.338Z,28.69
2022-09-06T20:50:14.721Z,28.69
2022-09-06T20:52:42.203Z,28.64
2022-09-06T20:55:10.391Z,28.70
2022-09-06T20:57:38.615Z,28.56
2022-09-06T21:00:07.983Z,28.53
2022-09-06T21:02:40.812Z,28.52
2022-09-06T21:05:10.781Z,28.53
2022-09-06T21:07:38.472Z,28.59
2022-09-06T21:10:06.349Z,28.67
2022-09-06T21:12:36.392Z,28.65
2022-09-06T21:15:07.475Z,28.53
2022-09-06T21:17:45.149Z,28.54
2022-09-06T21:20:21.652Z,28.56
2022-09-06T21:22:50.671Z,28.53
2022-09-06T21:25:20.595Z,28.39
2022-09-06T21:27:50.685Z,28.31
2022-09-06T21:30:21.697Z,28.35
2022-09-06T21:32:49.960Z,28.37
2022-09-06T21:35:17.616Z,28.33
2022-09-06T21:37:45.821Z,28.29
2022-09-06T21:40:14.221Z,28.26
2022-09-06T21:42:45.640Z,28.27
2022-09-06T21:45:13.392Z,28.28
2022-09-06T21:47:42.810Z,28.29
2022-09-06T21:50:10.841Z,28.26
2022-09-06T21:52:40.833Z,28.24
2022-09-06T21:55:13.491Z,28.25
2022-09-06T21:57:43.533Z,28.19
2022-09-06T22:00:12.544Z,28.15
2022-09-06T22:02:40.619Z,28.02
2022-09-06T22:05:10.026Z,27.92
2022-09-06T22:07:38.021Z,27.97
2022-09-06T22:10:05.898Z,27.91
2022-09-06T22:12:34.467Z,27.93
2022-09-06T22:15:09.433Z,27.96
2022-09-06T22:17:46.462Z,27.98
2022-09-06T22:20:14.002Z,27.99
2022-09-06T22:22:41.878Z,27.93
2022-09-06T22:25:09.735Z,27.94
2022-09-06T22:27:37.682Z,27.96
2022-09-06T22:30:05.796Z,27.94
2022-09-06T22:32:33.580Z,27.88
2022-09-06T22:35:01.218Z,27.88
2022-09-06T22:37:28.856Z,27.88
2022-09-06T22:39:56.440Z,27.88
2022-09-06T22:42:26.900Z,27.90
2022-09-06T22:44:55.469Z,27.87
2022-09-06T22:47:23.686Z,27.89
2022-09-06T22:49:53.450Z,27.85
2022-09-06T22:52:23.278Z,27.84
2022-09-06T22:54:51.015Z,27.83
2022-09-06T22:57:21.383Z,27.82
2022-09-06T22:59:49.146Z,27.80
2022-09-06T23:02:16.691Z,27.78
2022-09-06T23:04:44.315Z,27.76
2022-09-06T23:07:12.730Z,27.73
2022-09-06T23:09:40.768Z,27.72
2022-09-06T23:12:08.479Z,27.69
2022-09-06T23:14:36.273Z,27.69
2022-09-06T23:17:04.697Z,27.66
2022-09-06T23:19:34.650Z,27.63
2022-09-06T23:22:03.265Z,27.63
2022-09-06T23:24:31.394Z,27.61
2022-09-06T23:27:02.709Z,27.59
2022-09-06T23:29:30.220Z,27.55
2022-09-06T23:31:57.781Z,27.54
2022-09-06T23:34:25.664Z,27.50
2022-09-06T23:36:54.409Z,27.35
2022-09-06T23:39:22.317Z,27.38
2022-09-06T23:41:49.760Z,27.32
2022-09-06T23:44:17.363Z,27.09
2022-09-06T23:46:45.484Z,27.14
2022-09-06T23:49:13.689Z,27.22
2022-09-06T23:51:41.544Z,27.13
2022-09-06T23:54:09.006Z,27.11
2022-09-06T23:56:36.983Z,27.09
2022-09-06T23:59:06.935Z,27.11
